Terminal Aerodrome Forecast
Issued by NWS Sioux Falls, SD

Home | Current Version | Previous Version | Graphics & Text | Print | Product List | Glossary Off
Versions: 1 2 3 4 5 6 7 8 9 10 11 12 13 14 15 16 17 18 19 20 21 22 23 24 25 26 27 28

000
FTUS43 KFSD 191700
TAFFSD
TAF
KFSD 191736Z 1918/2018 18010KT P6SM BKN015
     FM191900 18010KT P6SM BKN025
     FM192000 18010KT P6SM SCT025 BKN200
     FM200100 18010KT P6SM SCT250
     FM201500 18012KT P6SM SCT015=

USA.gov is the U.S. government's official web portal to all federal, state and local government web resources and services.